sensor_id;sensor_type;location;lat;lon;timestamp;temperature;humidity
59303;DHT22;45074;52.764;6.896;2022-11-02T00:02:11;13.10;99.90
59303;DHT22;45074;52.764;6.896;2022-11-02T00:04:36;13.10;99.90
59303;DHT22;45074;52.764;6.896;2022-11-02T00:07:02;13.00;99.90
59303;DHT22;45074;52.764;6.896;2022-11-02T00:09:28;14.60;99.90
59303;DHT22;45074;52.764;6.896;2022-11-02T00:11:53;12.90;99.90
59303;DHT22;45074;52.764;6.896;2022-11-02T00:14:19;13.70;99.90
59303;DHT22;45074;52.764;6.896;2022-11-02T00:16:44;12.10;99.90
59303;DHT22;45074;52.764;6.896;2022-11-02T00:19:10;12.80;99.90
59303;DHT22;45074;52.764;6.896;2022-11-02T00:21:36;12.60;99.90
59303;DHT22;45074;52.764;6.896;2022-11-02T00:24:03;12.60;99.90
59303;DHT22;45074;52.764;6.896;2022-11-02T00:26:32;12.60;99.90
59303;DHT22;45074;52.764;6.896;2022-11-02T00:28:58;12.60;99.90
59303;DHT22;45074;52.764;6.896;2022-11-02T00:31:24;12.60;99.90
59303;DHT22;45074;52.764;6.896;2022-11-02T00:33:50;12.60;99.90
59303;DHT22;45074;52.764;6.896;2022-11-02T00:36:16;12.60;99.90
59303;DHT22;45074;52.764;6.896;2022-11-02T00:38:41;12.60;99.90
59303;DHT22;45074;52.764;6.896;2022-11-02T00:41:07;12.60;99.90
59303;DHT22;45074;52.764;6.896;2022-11-02T00:43:33;12.60;99.90
59303;DHT22;45074;52.764;6.896;2022-11-02T00:45:58;12.70;99.90
59303;DHT22;45074;52.764;6.896;2022-11-02T00:48:24;12.60;99.90
59303;DHT22;45074;52.764;6.896;2022-11-02T00:50:50;14.30;99.90
59303;DHT22;45074;52.764;6.896;2022-11-02T00:53:16;12.60;99.90
59303;DHT22;45074;52.764;6.896;2022-11-02T00:55:41;12.60;99.90
59303;DHT22;45074;52.764;6.896;2022-11-02T00:58:07;12.60;99.90
59303;DHT22;45074;52.764;6.896;2022-11-02T01:00:32;14.30;99.90
59303;DHT22;45074;52.764;6.896;2022-11-02T01:02:59;12.60;99.90
59303;DHT22;45074;52.764;6.896;2022-11-02T01:05:26;14.10;99.90
59303;DHT22;45074;52.764;6.896;2022-11-02T01:07:51;12.50;99.90
59303;DHT22;45074;52.764;6.896;2022-11-02T01:15:09;12.70;99.90
59303;DHT22;45074;52.764;6.896;2022-11-02T01:17:36;12.70;99.90
59303;DHT22;45074;52.764;6.896;2022-11-02T01:20:02;12.70;99.90
59303;DHT22;45074;52.764;6.896;2022-11-02T01:22:28;12.70;99.90
59303;DHT22;45074;52.764;6.896;2022-11-02T01:24:53;12.50;99.90
59303;DHT22;45074;52.764;6.896;2022-11-02T01:27:20;12.70;99.90
59303;DHT22;45074;52.764;6.896;2022-11-02T01:29:45;13.20;99.90
59303;DHT22;45074;52.764;6.896;2022-11-02T01:32:11;11.60;99.90
59303;DHT22;45074;52.764;6.896;2022-11-02T01:34:37;11.70;99.90
59303;DHT22;45074;52.764;6.896;2022-11-02T01:37:02;12.90;99.90
59303;DHT22;45074;52.764;6.896;2022-11-02T01:39:28;12.30;99.90
59303;DHT22;45074;52.764;6.896;2022-11-02T01:41:54;12.80;99.90
59303;DHT22;45074;52.764;6.896;2022-11-02T01:44:40;12.70;99.90
59303;DHT22;45074;52.764;6.896;2022-11-02T01:47:34;12.50;99.90
59303;DHT22;45074;52.764;6.896;2022-11-02T01:50:13;12.90;99.90
59303;DHT22;45074;52.764;6.896;2022-11-02T01:52:40;13.00;99.90
59303;DHT22;45074;52.764;6.896;2022-11-02T01:55:10;13.00;99.90
59303;DHT22;45074;52.764;6.896;2022-11-02T01:57:38;12.80;99.90
59303;DHT22;45074;52.764;6.896;2022-11-02T02:00:05;12.10;99.90
59303;DHT22;45074;52.764;6.896;2022-11-02T02:02:35;13.00;99.90
59303;DHT22;45074;52.764;6.896;2022-11-02T02:05:05;13.00;99.90
59303;DHT22;45074;52.764;6.896;2022-11-02T02:07:32;13.10;99.90
59303;DHT22;45074;52.764;6.896;2022-11-02T02:09:59;13.20;99.90
59303;DHT22;45074;52.764;6.896;2022-11-02T02:12:26;14.40;99.90
59303;DHT22;45074;52.764;6.896;2022-11-02T02:14:53;13.70;99.90
59303;DHT22;45074;52.764;6.896;2022-11-02T02:28:39;13.10;99.90
59303;DHT22;45074;52.764;6.896;2022-11-02T02:31:35;13.00;99.90
59303;DHT22;45074;52.764;6.896;2022-11-02T02:34:14;13.00;99.90
59303;DHT22;45074;52.764;6.896;2022-11-02T02:37:02;14.50;99.90
59303;DHT22;45074;52.764;6.896;2022-11-02T02:39:48;13.00;99.90
59303;DHT22;45074;52.764;6.896;2022-11-02T02:42:24;12.90;99.90
59303;DHT22;45074;52.764;6.896;2022-11-02T02:45:00;12.70;99.90
59303;DHT22;45074;52.764;6.896;2022-11-02T02:47:32;12.40;99.90
59303;DHT22;45074;52.764;6.896;2022-11-02T02:50:29;12.60;99.90
59303;DHT22;45074;52.764;6.896;2022-11-02T02:52:58;12.60;99.90
59303;DHT22;45074;52.764;6.896;2022-11-02T02:55:30;12.90;99.90
59303;DHT22;45074;52.764;6.896;2022-11-02T02:58:00;13.30;99.90
59303;DHT22;45074;52.764;6.896;2022-11-02T03:00:26;12.50;99.90
59303;DHT22;45074;52.764;6.896;2022-11-02T03:02:53;12.50;99.90
59303;DHT22;45074;52.764;6.896;2022-11-02T03:05:33;15.00;99.90
59303;DHT22;45074;52.764;6.896;2022-11-02T03:08:19;12.70;99.90
59303;DHT22;45074;52.764;6.896;2022-11-02T03:11:04;12.80;99.90
59303;DHT22;45074;52.764;6.896;2022-11-02T03:19:22;12.70;99.90
59303;DHT22;45074;52.764;6.896;2022-11-02T03:22:00;12.50;99.90
59303;DHT22;45074;52.764;6.896;2022-11-02T03:24:46;12.50;99.90
59303;DHT22;45074;52.764;6.896;2022-11-02T03:27:19;12.50;99.90
59303;DHT22;45074;52.764;6.896;2022-11-02T03:29:55;11.90;99.90
59303;DHT22;45074;52.764;6.896;2022-11-02T03:34:57;12.20;99.90
59303;DHT22;45074;52.764;6.896;2022-11-02T03:37:30;12.80;99.90
59303;DHT22;45074;52.764;6.896;2022-11-02T04:30:46;11.60;99.90
59303;DHT22;45074;52.764;6.896;2022-11-02T04:33:12;11.40;99.90
59303;DHT22;45074;52.764;6.896;2022-11-02T04:41:07;11.40;99.90
59303;DHT22;45074;52.764;6.896;2022-11-02T04:43:52;12.10;99.90
59303;DHT22;45074;52.764;6.896;2022-11-02T04:46:19;10.80;99.90
59303;DHT22;45074;52.764;6.896;2022-11-02T04:48:45;12.20;99.90
59303;DHT22;45074;52.764;6.896;2022-11-02T04:51:11;11.20;99.90
59303;DHT22;45074;52.764;6.896;2022-11-02T09:00:12;11.90;99.90
59303;DHT22;45074;52.764;6.896;2022-11-02T09:41:41;12.90;99.90
59303;DHT22;45074;52.764;6.896;2022-11-02T09:46:39;13.00;99.90
59303;DHT22;45074;52.764;6.896;2022-11-02T09:49:20;12.90;99.90
59303;DHT22;45074;52.764;6.896;2022-11-02T09:51:51;12.90;99.90
59303;DHT22;45074;52.764;6.896;2022-11-02T09:54:55;13.00;99.90
59303;DHT22;45074;52.764;6.896;2022-11-02T09:57:28;13.20;99.90
59303;DHT22;45074;52.764;6.896;2022-11-02T10:05:09;13.40;99.90
59303;DHT22;45074;52.764;6.896;2022-11-02T10:10:22;13.40;99.90
59303;DHT22;45074;52.764;6.896;2022-11-02T10:13:24;12.80;99.90
59303;DHT22;45074;52.764;6.896;2022-11-02T10:15:55;16.20;99.90
59303;DHT22;45074;52.764;6.896;2022-11-02T10:18:26;13.20;99.90
59303;DHT22;45074;52.764;6.896;2022-11-02T10:21:06;13.20;99.90
59303;DHT22;45074;52.764;6.896;2022-11-02T10:23:35;13.20;99.90
59303;DHT22;45074;52.764;6.896;2022-11-02T10:28:39;13.20;99.90
59303;DHT22;45074;52.764;6.896;2022-11-02T10:31:24;13.30;99.90
59303;DHT22;45074;52.764;6.896;2022-11-02T10:33:52;13.40;99.90
59303;DHT22;45074;52.764;6.896;2022-11-02T10:36:38;13.60;99.90
59303;DHT22;45074;52.764;6.896;2022-11-02T10:39:22;13.60;99.90
59303;DHT22;45074;52.764;6.896;2022-11-02T10:45:02;14.50;99.90
59303;DHT22;45074;52.764;6.896;2022-11-02T10:48:01;13.70;99.90
59303;DHT22;45074;52.764;6.896;2022-11-02T10:57:47;13.60;99.90
59303;DHT22;45074;52.764;6.896;2022-11-02T11:03:11;13.90;99.90
59303;DHT22;45074;52.764;6.896;2022-11-02T11:06:03;13.90;99.90
59303;DHT22;45074;52.764;6.896;2022-11-02T11:11:12;14.00;99.90
59303;DHT22;45074;52.764;6.896;2022-11-02T11:13:43;14.10;99.90
59303;DHT22;45074;52.764;6.896;2022-11-02T11:16:11;14.10;99.90
59303;DHT22;45074;52.764;6.896;2022-11-02T11:26:04;14.40;99.90
59303;DHT22;45074;52.764;6.896;2022-11-02T11:28:33;14.50;99.90
59303;DHT22;45074;52.764;6.896;2022-11-02T11:33:31;14.50;99.90
59303;DHT22;45074;52.764;6.896;2022-11-02T11:35:58;14.40;99.90
59303;DHT22;45074;52.764;6.896;2022-11-02T11:38:24;14.40;99.90
59303;DHT22;45074;52.764;6.896;2022-11-02T11:40:54;14.40;99.90
59303;DHT22;45074;52.764;6.896;2022-11-02T11:43:23;14.30;99.90
59303;DHT22;45074;52.764;6.896;2022-11-02T11:45:58;14.50;99.90
59303;DHT22;45074;52.764;6.896;2022-11-02T11:48:54;14.50;99.90
59303;DHT22;45074;52.764;6.896;2022-11-02T11:51:38;14.40;99.90
59303;DHT22;45074;52.764;6.896;2022-11-02T11:57:37;14.20;99.90
59303;DHT22;45074;52.764;6.896;2022-11-02T11:59:46;14.10;99.90
59303;DHT22;45074;52.764;6.896;2022-11-02T12:02:29;14.10;99.90
59303;DHT22;45074;52.764;6.896;2022-11-02T12:08:08;14.30;99.90
59303;DHT22;45074;52.764;6.896;2022-11-02T12:13:36;14.80;99.90
59303;DHT22;45074;52.764;6.896;2022-11-02T12:16:14;15.00;99.90
59303;DHT22;45074;52.764;6.896;2022-11-02T12:19:00;14.60;99.90
59303;DHT22;45074;52.764;6.896;2022-11-02T12:21:57;14.50;99.90
59303;DHT22;45074;52.764;6.896;2022-11-02T12:27:26;14.60;99.90
59303;DHT22;45074;52.764;6.896;2022-11-02T12:41:06;15.20;99.90
59303;DHT22;45074;52.764;6.896;2022-11-02T12:51:57;14.50;99.90
59303;DHT22;45074;52.764;6.896;2022-11-02T12:54:38;15.20;99.90
59303;DHT22;45074;52.764;6.896;2022-11-02T12:57:11;16.20;99.90
59303;DHT22;45074;52.764;6.896;2022-11-02T12:59:38;16.30;99.90
59303;DHT22;45074;52.764;6.896;2022-11-02T13:02:22;15.70;99.90
59303;DHT22;45074;52.764;6.896;2022-11-02T13:05:16;15.70;99.90
59303;DHT22;45074;52.764;6.896;2022-11-02T13:11:03;16.60;99.90
59303;DHT22;45074;52.764;6.896;2022-11-02T13:13:40;18.70;99.90
59303;DHT22;45074;52.764;6.896;2022-11-02T13:16:08;18.80;99.90
59303;DHT22;45074;52.764;6.896;2022-11-02T13:18:47;19.60;99.90
59303;DHT22;45074;52.764;6.896;2022-11-02T13:21:17;19.70;99.90
59303;DHT22;45074;52.764;6.896;2022-11-02T13:23:56;19.90;99.90
59303;DHT22;45074;52.764;6.896;2022-11-02T13:26:27;20.30;99.90
59303;DHT22;45074;52.764;6.896;2022-11-02T13:31:46;19.90;99.90
59303;DHT22;45074;52.764;6.896;2022-11-02T13:37:08;19.20;99.90
59303;DHT22;45074;52.764;6.896;2022-11-02T13:39:39;19.10;99.90
59303;DHT22;45074;52.764;6.896;2022-11-02T13:51:13;18.90;99.90
59303;DHT22;45074;52.764;6.896;2022-11-02T13:53:57;19.20;99.90
59303;DHT22;45074;52.764;6.896;2022-11-02T13:56:26;18.70;99.90
59303;DHT22;45074;52.764;6.896;2022-11-02T13:59:05;15.80;99.90
59303;DHT22;45074;52.764;6.896;2022-11-02T14:01:35;17.50;99.90
59303;DHT22;45074;52.764;6.896;2022-11-02T14:04:08;16.70;99.90
59303;DHT22;45074;52.764;6.896;2022-11-02T14:09:23;16.30;99.90
59303;DHT22;45074;52.764;6.896;2022-11-02T14:12:23;16.60;99.90
59303;DHT22;45074;52.764;6.896;2022-11-02T14:49:33;15.50;99.90
59303;DHT22;45074;52.764;6.896;2022-11-02T14:54:52;15.10;99.90
59303;DHT22;45074;52.764;6.896;2022-11-02T14:57:34;13.80;99.90
59303;DHT22;45074;52.764;6.896;2022-11-02T15:00:21;14.90;99.90
59303;DHT22;45074;52.764;6.896;2022-11-02T15:02:48;14.70;99.90
59303;DHT22;45074;52.764;6.896;2022-11-02T15:05:35;14.60;99.90
59303;DHT22;45074;52.764;6.896;2022-11-02T15:08:07;14.30;99.90
59303;DHT22;45074;52.764;6.896;2022-11-02T15:10:38;14.40;99.90
59303;DHT22;45074;52.764;6.896;2022-11-02T15:18:31;14.20;99.90
59303;DHT22;45074;52.764;6.896;2022-11-02T15:24:09;14.20;99.90
59303;DHT22;45074;52.764;6.896;2022-11-02T15:26:55;14.10;99.90
59303;DHT22;45074;52.764;6.896;2022-11-02T15:29:42;14.10;99.90
59303;DHT22;45074;52.764;6.896;2022-11-02T15:32:20;13.90;99.90
59303;DHT22;45074;52.764;6.896;2022-11-02T15:34:50;13.90;99.90
59303;DHT22;45074;52.764;6.896;2022-11-02T15:37:27;13.80;99.90
59303;DHT22;45074;52.764;6.896;2022-11-02T15:39:59;13.60;99.90
59303;DHT22;45074;52.764;6.896;2022-11-02T15:45:03;13.50;99.90
59303;DHT22;45074;52.764;6.896;2022-11-02T15:58:19;13.30;99.90
59303;DHT22;45074;52.764;6.896;2022-11-02T16:01:15;13.00;99.90
59303;DHT22;45074;52.764;6.896;2022-11-02T16:03:51;12.90;99.90
59303;DHT22;45074;52.764;6.896;2022-11-02T16:06:28;12.90;99.90
59303;DHT22;45074;52.764;6.896;2022-11-02T16:08:57;12.80;99.90
59303;DHT22;45074;52.764;6.896;2022-11-02T16:18:51;12.50;99.90
59303;DHT22;45074;52.764;6.896;2022-11-02T16:21:18;12.50;99.90
59303;DHT22;45074;52.764;6.896;2022-11-02T16:23:54;12.50;99.90
59303;DHT22;45074;52.764;6.896;2022-11-02T16:26:24;12.40;99.90
59303;DHT22;45074;52.764;6.896;2022-11-02T16:28:53;12.40;99.90
59303;DHT22;45074;52.764;6.896;2022-11-02T16:31:23;12.40;99.90
59303;DHT22;45074;52.764;6.896;2022-11-02T16:33:57;12.20;99.90
59303;DHT22;45074;52.764;6.896;2022-11-02T16:41:25;12.10;99.90
59303;DHT22;45074;52.764;6.896;2022-11-02T16:46:28;12.00;99.90
59303;DHT22;45074;52.764;6.896;2022-11-02T16:56:52;13.30;99.90
59303;DHT22;45074;52.764;6.896;2022-11-02T17:04:20;11.70;99.90
59303;DHT22;45074;52.764;6.896;2022-11-02T17:06:48;11.60;99.90
59303;DHT22;45074;52.764;6.896;2022-11-02T17:09:30;11.50;99.90
59303;DHT22;45074;52.764;6.896;2022-11-02T17:12:20;11.50;99.90
59303;DHT22;45074;52.764;6.896;2022-11-02T17:14:47;11.50;99.90
59303;DHT22;45074;52.764;6.896;2022-11-02T17:19:55;11.50;99.90
59303;DHT22;45074;52.764;6.896;2022-11-02T17:22:35;11.40;99.90
59303;DHT22;45074;52.764;6.896;2022-11-02T17:25:22;11.40;99.90
59303;DHT22;45074;52.764;6.896;2022-11-02T17:27:49;11.40;99.90
59303;DHT22;45074;52.764;6.896;2022-11-02T17:40:18;11.40;99.90
59303;DHT22;45074;52.764;6.896;2022-11-02T17:45:27;10.80;99.90
59303;DHT22;45074;52.764;6.896;2022-11-02T17:47:54;11.30;99.90
59303;DHT22;45074;52.764;6.896;2022-11-02T17:55:17;11.30;99.90
59303;DHT22;45074;52.764;6.896;2022-11-02T18:44:03;11.10;99.90
59303;DHT22;45074;52.764;6.896;2022-11-02T18:46:30;10.00;99.90
59303;DHT22;45074;52.764;6.896;2022-11-02T18:58:49;11.30;99.90
59303;DHT22;45074;52.764;6.896;2022-11-02T19:03:49;11.40;99.90
59303;DHT22;45074;52.764;6.896;2022-11-02T19:11:50;11.30;99.90
59303;DHT22;45074;52.764;6.896;2022-11-02T19:14:16;11.40;99.90
59303;DHT22;45074;52.764;6.896;2022-11-02T19:38:37;11.40;99.90
59303;DHT22;45074;52.764;6.896;2022-11-02T19:43:30;11.40;99.90
59303;DHT22;45074;52.764;6.896;2022-11-02T19:46:00;11.40;99.90
59303;DHT22;45074;52.764;6.896;2022-11-02T19:48:26;11.60;99.90
59303;DHT22;45074;52.764;6.896;2022-11-02T19:55:51;13.50;99.90
59303;DHT22;45074;52.764;6.896;2022-11-02T20:25:05;11.60;99.90
59303;DHT22;45074;52.764;6.896;2022-11-02T20:56:47;11.60;99.90
59303;DHT22;45074;52.764;6.896;2022-11-02T21:23:54;11.60;99.90
59303;DHT22;45074;52.764;6.896;2022-11-02T21:31:14;11.50;99.90
59303;DHT22;45074;52.764;6.896;2022-11-02T21:36:07;11.60;99.90
59303;DHT22;45074;52.764;6.896;2022-11-02T21:38:33;11.50;99.90
59303;DHT22;45074;52.764;6.896;2022-11-02T21:41:04;11.60;99.90
59303;DHT22;45074;52.764;6.896;2022-11-02T21:43:30;11.50;99.90
59303;DHT22;45074;52.764;6.896;2022-11-02T21:45:58;11.40;99.90
59303;DHT22;45074;52.764;6.896;2022-11-02T21:48:28;11.40;99.90
59303;DHT22;45074;52.764;6.896;2022-11-02T21:51:10;12.60;99.90
59303;DHT22;45074;52.764;6.896;2022-11-02T21:53:38;11.40;99.90
59303;DHT22;45074;52.764;6.896;2022-11-02T21:56:08;11.50;99.90
59303;DHT22;45074;52.764;6.896;2022-11-02T22:01:02;11.40;99.90
59303;DHT22;45074;52.764;6.896;2022-11-02T22:11:16;11.40;99.90
59303;DHT22;45074;52.764;6.896;2022-11-02T22:13:47;11.90;99.90
59303;DHT22;45074;52.764;6.896;2022-11-02T22:16:37;11.30;99.90
59303;DHT22;45074;52.764;6.896;2022-11-02T22:19:08;12.50;99.90
59303;DHT22;45074;52.764;6.896;2022-11-02T22:21:44;11.30;99.90
59303;DHT22;45074;52.764;6.896;2022-11-02T22:26:37;11.30;99.90
59303;DHT22;45074;52.764;6.896;2022-11-02T22:31:34;11.40;99.90
59303;DHT22;45074;52.764;6.896;2022-11-02T22:34:01;11.40;99.90
59303;DHT22;45074;52.764;6.896;2022-11-02T22:36:29;11.40;99.90
59303;DHT22;45074;52.764;6.896;2022-11-02T22:38:57;11.50;99.90
59303;DHT22;45074;52.764;6.896;2022-11-02T22:46:27;11.50;99.90
59303;DHT22;45074;52.764;6.896;2022-11-02T22:48:54;11.50;99.90
59303;DHT22;45074;52.764;6.896;2022-11-02T22:51:22;11.60;99.90
59303;DHT22;45074;52.764;6.896;2022-11-02T22:56:16;11.60;99.90
59303;DHT22;45074;52.764;6.896;2022-11-02T22:58:44;11.50;99.90
59303;DHT22;45074;52.764;6.896;2022-11-02T23:01:12;11.50;99.90
59303;DHT22;45074;52.764;6.896;2022-11-02T23:06:05;12.00;99.90
59303;DHT22;45074;52.764;6.896;2022-11-02T23:08:34;11.50;99.90
59303;DHT22;45074;52.764;6.896;2022-11-02T23:11:00;11.60;99.90
59303;DHT22;45074;52.764;6.896;2022-11-02T23:13:47;11.60;99.90
59303;DHT22;45074;52.764;6.896;2022-11-02T23:16:14;11.60;99.90
59303;DHT22;45074;52.764;6.896;2022-11-02T23:19:03;11.60;99.90
59303;DHT22;45074;52.764;6.896;2022-11-02T23:22:07;11.60;99.90
59303;DHT22;45074;52.764;6.896;2022-11-02T23:24:54;11.50;99.90
59303;DHT22;45074;52.764;6.896;2022-11-02T23:27:59;11.60;99.90
59303;DHT22;45074;52.764;6.896;2022-11-02T23:33:30;10.70;99.90
59303;DHT22;45074;52.764;6.896;2022-11-02T23:36:01;11.50;99.90
59303;DHT22;45074;52.764;6.896;2022-11-02T23:38:39;11.40;99.90
